Time;durP1;ratioP1;P1;durP2;ratioP2;P2;SDS_P1;SDS_P2;PMS_P1;PMS_P2;Temp;Humidity;BMP_temperature;BMP_pressure;BME280_temperature;BME280_humidity;BME280_pressure;Samples;Min_cycle;Max_cycle;Signal;HPM_P1;HPM_P2
2021/08/18 00:00:31;;;;;;;2.10;1.90;;;19.90;80.30;;;;;;10505176;28;20213;-59
2021/08/18 00:05:53;;;;;;;1.60;1.50;;;19.90;80.30;;;;;;10495844;28;20208;-58
2021/08/18 00:11:17;;;;;;;1.70;1.60;;;19.90;80.20;;;;;;10494964;28;20291;-58
2021/08/18 00:16:39;;;;;;;1.77;1.60;;;19.90;80.30;;;;;;10497769;28;20666;-60
2021/08/18 00:22:01;;;;;;;1.90;1.57;;;19.90;80.30;;;;;;10516093;28;20702;-59
2021/08/18 00:27:25;;;;;;;1.87;1.67;;;19.90;80.80;;;;;;10535453;28;20195;-59
2021/08/18 00:32:47;;;;;;;1.97;1.57;;;19.90;80.30;;;;;;10535325;28;20223;-58
2021/08/18 00:38:09;;;;;;;1.87;1.77;;;19.90;80.30;;;;;;10523129;28;20582;-57
2021/08/18 00:43:32;;;;;;;1.93;1.73;;;19.90;80.30;;;;;;10535490;28;20238;-58
2021/08/18 00:48:54;;;;;;;1.93;1.77;;;19.90;80.30;;;;;;10534171;28;20697;-59
2021/08/18 00:54:17;;;;;;;1.73;1.63;;;19.90;80.30;;;;;;10507177;28;20235;-58
2021/08/18 00:59:41;;;;;;;1.43;1.33;;;19.90;80.30;;;;;;10473683;28;20571;-58
2021/08/18 01:05:05;;;;;;;1.77;1.67;;;19.90;80.30;;;;;;10478758;28;20197;-58
2021/08/18 01:10:29;;;;;;;1.77;1.67;;;19.90;80.30;;;;;;10459645;28;20224;-57
2021/08/18 01:15:53;;;;;;;1.57;1.47;;;19.80;80.30;;;;;;10493094;28;20203;-58
2021/08/18 01:21:15;;;;;;;1.50;1.40;;;19.80;80.30;;;;;;10500187;28;20216;-56
2021/08/18 01:26:39;;;;;;;1.73;1.63;;;19.90;80.30;;;;;;10499987;28;20196;-59
2021/08/18 01:32:02;;;;;;;2.10;1.90;;;19.80;80.30;;;;;;10524283;28;20220;-58
2021/08/18 01:37:24;;;;;;;1.83;1.60;;;19.90;80.30;;;;;;10495154;28;20671;-58
2021/08/18 01:42:47;;;;;;;1.77;1.67;;;19.90;80.30;;;;;;10533818;28;20216;-58
2021/08/18 01:48:12;;;;;;;1.50;1.40;;;19.80;80.30;;;;;;10492185;28;20203;-55
2021/08/18 01:53:36;;;;;;;1.50;1.40;;;19.80;80.30;;;;;;10531486;28;20262;-59
2021/08/18 01:58:58;;;;;;;1.63;1.50;;;19.80;80.30;;;;;;10512521;28;20571;-57
2021/08/18 02:04:21;;;;;;;1.50;1.40;;;19.80;80.30;;;;;;10532798;28;20234;-59
2021/08/18 02:09:43;;;;;;;1.50;1.40;;;19.80;80.30;;;;;;10530262;28;20192;-63
2021/08/18 02:15:07;;;;;;;1.53;1.40;;;19.80;80.30;;;;;;10491656;28;20203;-59
2021/08/18 02:20:33;;;;;;;1.60;1.50;;;19.80;80.30;;;;;;10491232;28;20226;-62
2021/08/18 02:25:55;;;;;;;1.60;1.50;;;19.80;80.40;;;;;;10491685;28;20196;-61
2021/08/18 02:31:17;;;;;;;1.47;1.37;;;19.80;80.30;;;;;;10491561;28;20217;-64
2021/08/18 02:36:41;;;;;;;1.97;1.50;;;19.80;80.40;;;;;;10491608;28;20196;-58
2021/08/18 02:42:03;;;;;;;1.40;1.30;;;19.80;80.40;;;;;;10489968;28;20262;-59
2021/08/18 02:47:25;;;;;;;1.30;1.20;;;19.80;80.40;;;;;;10497061;28;20196;-62
2021/08/18 02:52:49;;;;;;;1.63;1.53;;;19.80;80.40;;;;;;10500766;28;20729;-59
2021/08/18 02:58:11;;;;;;;1.70;1.60;;;19.80;80.40;;;;;;10525387;28;20199;-59
2021/08/18 03:03:33;;;;;;;1.43;1.33;;;19.80;80.40;;;;;;10499166;28;20212;-61
2021/08/18 03:08:56;;;;;;;1.70;1.50;;;19.80;80.40;;;;;;10498907;28;20592;-60
2021/08/18 03:14:19;;;;;;;1.60;1.50;;;19.80;80.50;;;;;;10497758;28;20224;-57
2021/08/18 03:19:42;;;;;;;1.33;1.23;;;19.80;80.40;;;;;;10470060;28;20683;-57
2021/08/18 03:25:09;;;;;;;1.57;1.47;;;19.80;80.50;;;;;;10456118;28;20194;-60
2021/08/18 03:30:31;;;;;;;1.60;1.50;;;19.80;80.50;;;;;;10455709;28;20600;-61
2021/08/18 03:35:54;;;;;;;1.70;1.60;;;19.70;80.40;;;;;;10490141;28;20200;-60
2021/08/18 03:41:17;;;;;;;1.33;1.23;;;19.80;80.50;;;;;;10497005;28;20587;-62
2021/08/18 03:46:39;;;;;;;1.40;1.30;;;19.80;80.50;;;;;;10496915;28;20702;-62
2021/08/18 03:52:01;;;;;;;1.97;1.60;;;19.80;80.50;;;;;;10500804;28;20698;-62
2021/08/18 03:57:25;;;;;;;1.70;1.37;;;19.80;80.40;;;;;;10531577;28;20560;-61
2021/08/18 04:02:47;;;;;;;1.33;1.23;;;19.80;80.50;;;;;;10496808;28;20580;-61
2021/08/18 04:08:11;;;;;;;1.83;1.73;;;19.80;80.50;;;;;;10495744;28;20201;-62
2021/08/18 04:13:34;;;;;;;1.33;1.23;;;19.80;80.40;;;;;;10495661;28;20243;-58
2021/08/18 04:18:56;;;;;;;1.27;1.17;;;19.80;80.40;;;;;;10494228;28;20606;-58
2021/08/18 04:24:18;;;;;;;1.50;1.13;;;19.80;80.40;;;;;;10494650;28;20243;-62
2021/08/18 04:29:41;;;;;;;1.50;1.40;;;19.80;80.40;;;;;;10493766;28;20204;-62
2021/08/18 04:35:05;;;;;;;1.20;1.10;;;19.80;80.40;;;;;;10493693;28;20694;-59
2021/08/18 04:40:27;;;;;;;1.40;1.30;;;19.80;80.40;;;;;;10493690;28;20220;-60
2021/08/18 04:45:52;;;;;;;1.37;1.27;;;19.80;80.40;;;;;;10490073;28;20204;-61
2021/08/18 04:51:14;;;;;;;1.63;1.27;;;19.80;80.40;;;;;;10497676;28;20242;-60
2021/08/18 04:56:36;;;;;;;1.47;1.37;;;19.80;80.40;;;;;;10535960;28;20203;-61
2021/08/18 05:02:00;;;;;;;1.40;1.30;;;19.80;80.30;;;;;;10451421;28;20206;-61
2021/08/18 05:07:22;;;;;;;1.40;1.30;;;19.80;80.30;;;;;;10454368;28;20212;-59
2021/08/18 05:12:44;;;;;;;0.90;0.90;;;19.90;80.20;;;;;;10479966;28;20220;-60
2021/08/18 05:18:07;;;;;;;1.37;1.27;;;19.90;80.10;;;;;;10494468;28;20208;-62
2021/08/18 05:23:29;;;;;;;1.07;1.00;;;19.90;80.10;;;;;;10495305;28;20212;-64
2021/08/18 05:28:51;;;;;;;1.67;1.30;;;19.90;80.00;;;;;;10492999;28;20350;-61
2021/08/18 05:34:15;;;;;;;1.43;1.33;;;19.90;80.10;;;;;;10489561;28;20223;-62
2021/08/18 05:39:37;;;;;;;1.23;1.13;;;19.90;80.10;;;;;;10499408;28;20192;-61
2021/08/18 05:45:01;;;;;;;1.13;1.03;;;19.90;80.10;;;;;;10493066;28;20192;-62
2021/08/18 05:50:24;;;;;;;1.13;1.03;;;19.90;80.20;;;;;;10491291;28;20583;-59
2021/08/18 05:55:48;;;;;;;1.30;1.20;;;19.90;80.20;;;;;;10525581;28;20666;-62
2021/08/18 06:01:10;;;;;;;1.43;1.33;;;19.90;80.20;;;;;;10494813;28;20283;-59
2021/08/18 06:06:33;;;;;;;1.37;1.27;;;19.90;80.30;;;;;;10492281;28;20214;-58
2021/08/18 06:11:56;;;;;;;1.10;1.00;;;19.90;80.40;;;;;;10490297;28;20209;-60
2021/08/18 06:17:18;;;;;;;0.87;0.80;;;19.90;80.30;;;;;;10487491;28;20204;-60
2021/08/18 06:22:41;;;;;;;1.30;1.20;;;19.90;80.40;;;;;;10498858;28;20219;-62
2021/08/18 06:28:04;;;;;;;1.40;1.30;;;19.90;80.40;;;;;;10492014;28;20207;-67
2021/08/18 06:33:26;;;;;;;1.20;1.10;;;19.80;80.40;;;;;;10498947;28;20723;-60
2021/08/18 06:38:49;;;;;;;1.20;1.10;;;19.80;80.40;;;;;;10504161;28;20212;-59
2021/08/18 06:44:11;;;;;;;1.23;1.13;;;19.80;80.40;;;;;;10500401;28;20212;-62
2021/08/18 06:49:34;;;;;;;1.73;1.17;;;19.80;80.50;;;;;;10539723;28;20555;-63
2021/08/18 06:54:57;;;;;;;1.33;1.23;;;19.80;80.40;;;;;;10513206;28;20220;-61
2021/08/18 07:00:20;;;;;;;1.10;1.00;;;19.80;80.50;;;;;;10528608;28;20225;-62
2021/08/18 07:05:42;;;;;;;1.53;1.37;;;19.80;80.50;;;;;;10538962;28;20220;-62
2021/08/18 07:11:06;;;;;;;1.40;1.30;;;19.80;80.50;;;;;;10524800;28;20225;-62
2021/08/18 07:16:28;;;;;;;1.27;1.17;;;19.80;80.50;;;;;;10498465;28;20188;-61
2021/08/18 07:21:50;;;;;;;1.23;1.13;;;19.80;80.40;;;;;;10515544;28;20568;-62
2021/08/18 07:27:13;;;;;;;1.20;1.10;;;19.80;80.40;;;;;;10517632;28;20204;-58
2021/08/18 07:32:37;;;;;;;1.30;1.20;;;19.80;80.40;;;;;;10497274;28;20212;-62
2021/08/18 07:37:59;;;;;;;1.57;1.10;;;19.80;80.40;;;;;;10498643;28;20204;-58
2021/08/18 07:43:22;;;;;;;0.90;0.90;;;19.80;80.40;;;;;;10496600;28;20208;-59
2021/08/18 07:48:44;;;;;;;1.20;1.10;;;19.80;80.40;;;;;;10496272;28;20201;-57
2021/08/18 07:54:07;;;;;;;1.30;1.20;;;19.80;80.50;;;;;;10517440;28;20222;-60
2021/08/18 07:59:30;;;;;;;1.00;1.00;;;19.80;80.40;;;;;;10513711;28;20192;-57
2021/08/18 08:04:52;;;;;;;1.47;1.27;;;19.80;80.50;;;;;;10497169;28;20195;-61
2021/08/18 08:10:15;;;;;;;1.20;0.93;;;19.80;80.40;;;;;;10500750;28;20212;-61
2021/08/18 08:15:38;;;;;;;1.20;1.10;;;19.80;80.40;;;;;;10496085;28;20213;-60
2021/08/18 08:21:00;;;;;;;1.10;1.00;;;19.80;80.40;;;;;;10503457;28;20235;-59
2021/08/18 08:26:22;;;;;;;2.13;1.00;;;19.80;80.50;;;;;;10495595;28;20199;-58
2021/08/18 08:31:46;;;;;;;1.20;1.10;;;19.80;80.50;;;;;;10495001;28;20227;-58
2021/08/18 08:37:08;;;;;;;1.00;1.00;;;19.80;80.50;;;;;;10495337;28;20192;-60
2021/08/18 08:42:32;;;;;;;1.20;1.10;;;19.80;80.50;;;;;;10493294;28;20208;-61
2021/08/18 08:47:56;;;;;;;1.20;1.10;;;19.80;80.50;;;;;;10504663;28;20207;-62
2021/08/18 08:53:18;;;;;;;1.33;1.23;;;19.80;80.50;;;;;;10521478;28;20231;-58
2021/08/18 08:58:40;;;;;;;0.90;0.90;;;19.80;80.50;;;;;;10510749;28;20196;-58
2021/08/18 09:04:04;;;;;;;1.10;1.00;;;19.80;80.50;;;;;;10536068;28;20211;-59
2021/08/18 09:09:26;;;;;;;1.30;1.20;;;19.80;80.50;;;;;;10532950;28;20194;-60
2021/08/18 09:14:48;;;;;;;1.13;1.03;;;19.80;80.50;;;;;;10494273;28;20224;-57
2021/08/18 09:20:14;;;;;;;1.20;1.10;;;19.80;80.50;;;;;;10496137;28;20740;-62
2021/08/18 09:25:39;;;;;;;0.97;0.90;;;19.80;80.50;;;;;;10499320;28;20189;-62
2021/08/18 09:31:01;;;;;;;1.03;1.03;;;19.80;80.50;;;;;;10485946;28;20216;-59
2021/08/18 09:36:27;;;;;;;1.13;1.03;;;19.80;80.50;;;;;;10493810;28;20220;-63
2021/08/18 09:41:53;;;;;;;1.00;0.93;;;19.80;80.50;;;;;;10492957;28;20215;-62
2021/08/18 09:47:15;;;;;;;1.37;1.27;;;19.80;80.50;;;;;;10491828;28;20196;-62
2021/08/18 09:52:38;;;;;;;1.30;1.20;;;19.80;80.50;;;;;;10500064;28;20222;-62
2021/08/18 09:58:00;;;;;;;1.07;0.97;;;19.80;80.50;;;;;;10523010;28;20196;-59
2021/08/18 10:03:23;;;;;;;1.30;1.20;;;19.80;80.50;;;;;;10492647;28;20458;-56
2021/08/18 10:08:51;;;;;;;0.90;0.90;;;19.80;80.50;;;;;;10500468;28;20197;-57
2021/08/18 10:14:14;;;;;;;1.10;1.00;;;19.80;80.50;;;;;;10500413;28;20350;-59
2021/08/18 10:19:36;;;;;;;0.90;0.90;;;19.80;80.50;;;;;;10503315;28;20204;-62
2021/08/18 10:25:40;;;;;;;1.17;1.07;;;19.80;80.60;;;;;;10500478;28;20192;-61
2021/08/18 10:31:02;;;;;;;1.20;1.10;;;19.80;80.30;;;;;;10500241;28;20232;-59
2021/08/18 10:37:01;;;;;;;1.20;1.10;;;19.80;80.60;;;;;;10499564;28;20195;-59
2021/08/18 10:42:40;;;;;;;1.30;1.20;;;19.80;80.30;;;;;;10505187;28;20227;-58
2021/08/18 10:48:03;;;;;;;0.90;0.90;;;19.80;80.50;;;;;;10499070;28;20629;-60
2021/08/18 10:53:30;;;;;;;1.40;1.10;;;19.80;80.60;;;;;;10512956;28;20644;-58
2021/08/18 10:58:54;;;;;;;1.20;1.10;;;19.80;80.60;;;;;;10522584;28;20200;-58
2021/08/18 11:04:42;;;;;;;1.13;1.03;;;19.80;80.60;;;;;;10498385;28;20220;-58
2021/08/18 11:10:05;;;;;;;1.43;1.33;;;19.80;80.40;;;;;;10497901;28;20185;-59
2021/08/18 11:15:51;;;;;;;0.80;0.80;;;19.80;80.60;;;;;;10499023;28;20220;-57
2021/08/18 11:21:19;;;;;;;0.90;0.90;;;19.80;80.40;;;;;;10532672;28;20231;-56
2021/08/18 11:26:43;;;;;;;0.90;0.90;;;19.80;80.60;;;;;;10540130;28;20199;-58
2021/08/18 11:32:07;;;;;;;1.20;1.10;;;19.80;80.60;;;;;;10535317;28;20224;-61
2021/08/18 11:37:29;;;;;;;1.20;1.10;;;19.80;80.60;;;;;;10537951;28;20665;-62
2021/08/18 11:42:51;;;;;;;1.10;1.00;;;19.80;80.60;;;;;;10539186;28;20215;-59
2021/08/18 11:48:14;;;;;;;0.70;0.70;;;19.80;80.60;;;;;;10538432;28;20686;-60
2021/08/18 11:53:37;;;;;;;1.03;0.97;;;19.80;80.60;;;;;;10538775;28;20231;-59
2021/08/18 11:59:01;;;;;;;1.03;1.00;;;19.80;80.60;;;;;;10536370;28;20200;-59
2021/08/18 12:04:25;;;;;;;1.10;1.00;;;19.80;80.60;;;;;;10538415;28;20216;-61
2021/08/18 12:10:08;;;;;;;0.93;0.93;;;19.80;80.70;;;;;;10538370;28;20570;-62
2021/08/18 12:15:34;;;;;;;1.00;0.90;;;19.80;80.60;;;;;;10537513;28;20211;-61
2021/08/18 12:21:16;;;;;;;1.03;1.00;;;19.80;80.70;;;;;;10498144;28;20228;-59
2021/08/18 12:26:40;;;;;;;1.27;1.17;;;19.80;80.40;;;;;;10495806;28;20659;-59
2021/08/18 12:32:04;;;;;;;0.97;0.90;;;19.80;81.10;;;;;;10495551;28;20216;-59
2021/08/18 12:37:30;;;;;;;1.20;1.10;;;19.80;80.70;;;;;;10495469;28;20204;-59
2021/08/18 12:42:55;;;;;;;1.00;0.90;;;19.80;80.70;;;;;;10494180;28;20691;-62
2021/08/18 12:48:24;;;;;;;0.80;0.80;;;19.80;80.70;;;;;;10495181;28;20204;-61
2021/08/18 12:53:47;;;;;;;1.00;0.80;;;19.80;80.70;;;;;;10535838;28;20208;-60
2021/08/18 12:59:10;;;;;;;1.00;0.90;;;19.80;80.70;;;;;;10536112;28;20202;-60
2021/08/18 13:04:32;;;;;;;1.07;0.97;;;19.80;80.70;;;;;;10535978;28;20207;-59
2021/08/18 13:09:56;;;;;;;0.80;0.80;;;19.80;80.70;;;;;;10535680;28;20191;-58
2021/08/18 13:15:18;;;;;;;0.77;0.77;;;19.80;80.70;;;;;;10534967;28;20220;-61
2021/08/18 13:20:40;;;;;;;1.10;1.00;;;19.80;80.70;;;;;;10498208;28;20220;-61
2021/08/18 13:26:04;;;;;;;0.80;0.80;;;19.80;80.70;;;;;;10534844;28;20223;-60
2021/08/18 13:31:29;;;;;;;1.13;1.00;;;19.80;80.70;;;;;;10534893;28;20708;-60
2021/08/18 13:36:51;;;;;;;0.83;0.83;;;19.80;80.70;;;;;;10535129;28;20416;-60
2021/08/18 13:42:15;;;;;;;1.07;0.97;;;19.80;80.70;;;;;;10534210;28;20238;-62
2021/08/18 13:47:37;;;;;;;0.80;0.80;;;19.80;80.70;;;;;;10535154;28;20196;-57
2021/08/18 13:52:59;;;;;;;1.30;1.20;;;19.80;80.70;;;;;;10525737;28;20230;-60
2021/08/18 13:58:22;;;;;;;1.13;1.03;;;19.80;80.70;;;;;;10525520;28;20199;-58
2021/08/18 14:03:45;;;;;;;0.90;0.90;;;19.80;80.70;;;;;;10534152;28;20220;-58
2021/08/18 14:09:08;;;;;;;1.10;1.00;;;19.80;80.70;;;;;;10534998;28;20219;-61
2021/08/18 14:14:31;;;;;;;0.97;0.93;;;19.80;80.60;;;;;;10491926;28;20587;-60
2021/08/18 14:19:54;;;;;;;0.80;0.80;;;19.80;80.60;;;;;;10509338;28;20223;-66
2021/08/18 14:25:16;;;;;;;1.10;1.00;;;19.80;80.60;;;;;;10534039;28;20207;-61
2021/08/18 14:30:39;;;;;;;0.93;0.93;;;19.80;80.60;;;;;;10533870;28;20208;-62
2021/08/18 14:36:01;;;;;;;0.83;0.83;;;19.80;80.70;;;;;;10534029;28;20218;-59
2021/08/18 14:41:26;;;;;;;0.60;0.60;;;19.80;80.60;;;;;;10533858;28;20220;-60
2021/08/18 14:46:49;;;;;;;0.80;0.80;;;19.80;80.30;;;;;;10527881;28;20195;-59
2021/08/18 14:52:11;;;;;;;0.83;0.83;;;19.90;80.30;;;;;;10536768;28;20211;-60
2021/08/18 14:57:33;;;;;;;0.90;0.90;;;19.80;80.20;;;;;;10536889;28;20219;-59
2021/08/18 15:02:58;;;;;;;1.10;1.00;;;19.90;80.20;;;;;;10540644;28;20216;-57
2021/08/18 15:08:20;;;;;;;0.80;0.80;;;19.90;80.20;;;;;;10540603;28;20276;-60
2021/08/18 15:13:42;;;;;;;0.80;0.80;;;19.90;80.30;;;;;;10540220;28;20219;-56
2021/08/18 15:19:05;;;;;;;0.73;0.73;;;19.90;80.30;;;;;;10540104;28;20618;-57
2021/08/18 15:24:29;;;;;;;0.70;0.70;;;19.90;80.40;;;;;;10528865;28;20216;-63
2021/08/18 15:29:51;;;;;;;0.90;0.90;;;19.90;80.40;;;;;;10512669;28;20197;-58
2021/08/18 15:35:15;;;;;;;0.90;0.90;;;19.90;80.50;;;;;;10497199;28;20594;-59
2021/08/18 15:40:37;;;;;;;0.80;0.80;;;19.80;80.60;;;;;;10496639;28;20216;-59
2021/08/18 15:45:59;;;;;;;0.90;0.90;;;19.80;80.60;;;;;;10496940;28;20192;-60
2021/08/18 15:51:23;;;;;;;0.83;0.83;;;19.80;80.60;;;;;;10497732;28;20698;-59
2021/08/18 15:56:45;;;;;;;0.87;0.87;;;19.80;80.70;;;;;;10458034;28;20228;-61
2021/08/18 16:02:08;;;;;;;1.03;0.90;;;19.80;80.70;;;;;;10455010;28;20217;-60
2021/08/18 16:07:32;;;;;;;0.97;0.70;;;19.80;80.70;;;;;;10455771;28;20209;-59
2021/08/18 16:12:54;;;;;;;0.70;0.70;;;19.80;80.70;;;;;;10482592;28;20220;-60
2021/08/18 16:18:17;;;;;;;0.80;0.80;;;19.80;80.70;;;;;;10495045;28;20223;-59
2021/08/18 16:23:40;;;;;;;0.67;0.67;;;19.80;80.70;;;;;;10503203;28;20672;-59
2021/08/18 16:29:04;;;;;;;0.80;0.80;;;19.80;80.70;;;;;;10452985;28;20189;-61
2021/08/18 16:34:26;;;;;;;0.80;0.80;;;19.80;80.70;;;;;;10454381;28;20244;-59
2021/08/18 16:39:51;;;;;;;1.00;0.90;;;19.80;80.70;;;;;;10453265;28;20193;-60
2021/08/18 16:45:15;;;;;;;0.80;0.80;;;19.80;80.80;;;;;;10457156;28;20196;-60
2021/08/18 16:50:37;;;;;;;0.70;0.70;;;19.80;80.80;;;;;;10489373;28;20212;-59
2021/08/18 16:56:02;;;;;;;0.70;0.70;;;19.80;80.80;;;;;;10530794;28;20682;-60
2021/08/18 17:01:24;;;;;;;0.80;0.80;;;19.80;80.80;;;;;;10495627;28;20220;-59
2021/08/18 17:06:46;;;;;;;1.23;0.80;;;19.70;80.70;;;;;;10493526;28;20204;-61
2021/08/18 17:12:10;;;;;;;0.80;0.80;;;19.80;80.80;;;;;;10492738;28;20624;-63
2021/08/18 17:17:32;;;;;;;0.83;0.80;;;19.80;80.80;;;;;;10493062;28;20215;-58
2021/08/18 17:22:56;;;;;;;0.60;0.60;;;19.80;80.80;;;;;;10476550;28;20224;-59
2021/08/18 17:28:20;;;;;;;0.70;0.70;;;19.80;80.80;;;;;;10452237;28;20575;-60
2021/08/18 17:33:42;;;;;;;0.60;0.60;;;19.80;80.80;;;;;;10475687;28;20575;-63
2021/08/18 17:39:04;;;;;;;0.90;0.90;;;19.80;80.70;;;;;;10450337;28;20205;-64
2021/08/18 17:44:28;;;;;;;0.90;0.90;;;19.80;80.70;;;;;;10452061;28;20209;-63
2021/08/18 17:49:50;;;;;;;1.10;0.83;;;19.80;80.70;;;;;;10451748;28;20687;-61
2021/08/18 17:55:12;;;;;;;0.70;0.70;;;19.80;80.80;;;;;;10481420;28;20734;-57
2021/08/18 18:00:36;;;;;;;0.77;0.77;;;19.80;80.80;;;;;;10523317;28;20587;-61
2021/08/18 18:05:58;;;;;;;0.87;0.87;;;19.80;80.80;;;;;;10533972;28;20188;-59
2021/08/18 18:11:21;;;;;;;0.80;0.80;;;19.80;80.70;;;;;;10516100;28;20671;-60
2021/08/18 18:16:46;;;;;;;0.90;0.90;;;19.80;80.70;;;;;;10491541;28;20679;-58
2021/08/18 18:22:08;;;;;;;0.77;0.77;;;19.80;80.70;;;;;;10480577;28;20217;-59
2021/08/18 18:27:30;;;;;;;1.03;0.97;;;19.80;80.70;;;;;;10455418;28;20568;-59
2021/08/18 18:32:54;;;;;;;0.77;0.77;;;19.80;80.70;;;;;;10459445;28;20224;-62
2021/08/18 18:38:17;;;;;;;0.60;0.60;;;19.80;80.70;;;;;;10458811;28;20201;-59
2021/08/18 18:43:40;;;;;;;0.70;0.70;;;19.80;80.70;;;;;;10457520;28;20219;-64
2021/08/18 18:49:03;;;;;;;0.97;0.90;;;19.80;80.70;;;;;;10462054;28;20584;-61
2021/08/18 18:54:25;;;;;;;0.70;0.70;;;19.80;80.70;;;;;;10513920;28;20216;-58
2021/08/18 18:59:47;;;;;;;0.80;0.80;;;19.80;80.70;;;;;;10524101;28;20668;-60
2021/08/18 19:05:11;;;;;;;0.70;0.70;;;19.80;80.70;;;;;;10539114;28;20195;-61
2021/08/18 19:10:33;;;;;;;0.70;0.70;;;19.80;80.70;;;;;;10529421;28;20216;-63
2021/08/18 19:15:56;;;;;;;0.70;0.70;;;19.80;80.70;;;;;;10515094;28;20630;-62
2021/08/18 19:21:19;;;;;;;0.67;0.63;;;19.80;80.70;;;;;;10534465;28;20738;-59
2021/08/18 19:26:41;;;;;;;0.67;0.67;;;19.80;80.70;;;;;;10498913;28;20284;-59
2021/08/18 19:32:04;;;;;;;0.67;0.67;;;19.80;80.80;;;;;;10498066;28;20217;-58
2021/08/18 19:37:33;;;;;;;0.80;0.80;;;19.80;80.80;;;;;;10496842;28;20220;-59
2021/08/18 19:42:55;;;;;;;0.80;0.80;;;19.80;80.80;;;;;;10495741;28;20212;-60
2021/08/18 19:48:17;;;;;;;0.73;0.73;;;19.80;80.80;;;;;;10494367;28;20561;-58
2021/08/18 19:53:41;;;;;;;0.87;0.87;;;19.80;80.80;;;;;;10513764;28;20749;-59
2021/08/18 19:59:03;;;;;;;0.70;0.70;;;19.80;80.80;;;;;;10518968;28;20200;-61
2021/08/18 20:04:25;;;;;;;0.70;0.70;;;19.80;80.80;;;;;;10496694;28;20216;-62
2021/08/18 20:09:48;;;;;;;0.70;0.70;;;19.80;80.80;;;;;;10497297;28;20215;-60
2021/08/18 20:15:12;;;;;;;0.60;0.60;;;19.80;80.80;;;;;;10504369;28;20215;-57
2021/08/18 20:20:34;;;;;;;0.67;0.67;;;19.80;80.90;;;;;;10495674;28;20232;-60
2021/08/18 20:25:57;;;;;;;0.57;0.57;;;19.80;81.40;;;;;;10495722;28;20250;-60
2021/08/18 20:31:20;;;;;;;0.70;0.70;;;19.80;80.90;;;;;;10493805;28;20219;-58
2021/08/18 20:36:42;;;;;;;0.77;0.77;;;19.80;80.90;;;;;;10494443;28;20270;-58
2021/08/18 20:42:06;;;;;;;0.50;0.50;;;19.80;80.90;;;;;;10494620;28;20790;-59
2021/08/18 20:47:31;;;;;;;0.70;0.70;;;19.80;80.90;;;;;;10487844;28;20196;-59
2021/08/18 20:52:53;;;;;;;0.60;0.60;;;19.80;80.90;;;;;;10496463;28;20212;-59
2021/08/18 20:58:17;;;;;;;0.83;0.83;;;19.80;80.90;;;;;;10522335;28;20621;-60
2021/08/18 21:03:39;;;;;;;0.70;0.70;;;19.80;81.50;;;;;;10493342;28;20212;-58
2021/08/18 21:09:03;;;;;;;0.70;0.70;;;19.80;80.90;;;;;;10536318;28;20198;-60
2021/08/18 21:14:26;;;;;;;0.80;0.70;;;19.80;81.00;;;;;;10471946;28;20224;-60
2021/08/18 21:19:48;;;;;;;0.80;0.80;;;19.80;80.90;;;;;;10492299;28;20631;-59
2021/08/18 21:25:11;;;;;;;0.80;0.73;;;19.80;81.00;;;;;;10534892;28;20199;-56
2021/08/18 21:30:34;;;;;;;0.70;0.70;;;19.80;81.00;;;;;;10534434;28;20242;-59
2021/08/18 21:35:57;;;;;;;0.80;0.80;;;19.80;81.00;;;;;;10517897;28;20219;-60
2021/08/18 21:41:19;;;;;;;0.70;0.70;;;19.80;81.00;;;;;;10499148;28;20219;-58
2021/08/18 21:46:42;;;;;;;0.70;0.70;;;19.70;80.90;;;;;;10533653;28;20685;-59
2021/08/18 21:52:05;;;;;;;0.70;0.70;;;19.70;81.00;;;;;;10530506;28;20216;-59
2021/08/18 21:57:27;;;;;;;0.73;0.73;;;19.80;81.00;;;;;;10498416;28;20211;-56
2021/08/18 22:02:50;;;;;;;0.80;0.70;;;19.70;81.00;;;;;;10538728;28;20223;-57
2021/08/18 22:08:12;;;;;;;0.80;0.80;;;19.70;81.00;;;;;;10540934;28;20693;-60
2021/08/18 22:13:35;;;;;;;0.80;0.80;;;19.80;81.00;;;;;;10504216;28;20591;-59
2021/08/18 22:18:59;;;;;;;1.10;0.80;;;19.80;81.00;;;;;;10492424;28;20671;-56
2021/08/18 22:24:21;;;;;;;0.77;0.77;;;19.80;81.00;;;;;;10500113;28;20288;-56
2021/08/18 22:29:44;;;;;;;0.80;0.80;;;19.70;81.00;;;;;;10499013;28;20679;-59
2021/08/18 22:35:08;;;;;;;0.80;0.80;;;19.70;81.00;;;;;;10499800;28;20209;-59
2021/08/18 22:40:30;;;;;;;0.83;0.83;;;19.70;81.00;;;;;;10499749;28;20293;-59
2021/08/18 22:45:53;;;;;;;0.70;0.70;;;19.80;81.60;;;;;;10497811;28;20203;-59
2021/08/18 22:51:17;;;;;;;0.60;0.60;;;19.70;81.00;;;;;;10499370;28;20224;-59
2021/08/18 22:56:39;;;;;;;0.70;0.70;;;19.70;81.00;;;;;;10493084;28;20231;-59
2021/08/18 23:02:01;;;;;;;0.77;0.77;;;19.70;81.00;;;;;;10474809;28;20221;-57
2021/08/18 23:07:24;;;;;;;0.90;0.90;;;19.70;81.00;;;;;;10500889;28;20188;-57
2021/08/18 23:12:46;;;;;;;0.90;0.90;;;19.70;81.00;;;;;;10497185;28;20291;-59
2021/08/18 23:18:08;;;;;;;0.80;0.80;;;19.70;81.00;;;;;;10455398;28;20216;-59
2021/08/18 23:23:32;;;;;;;0.90;0.90;;;19.70;81.00;;;;;;10456203;28;20217;-59
2021/08/18 23:28:54;;;;;;;0.70;0.70;;;19.70;81.00;;;;;;10447800;28;20190;-59
2021/08/18 23:34:17;;;;;;;0.70;0.70;;;19.70;81.00;;;;;;10455684;28;20252;-60
2021/08/18 23:39:40;;;;;;;0.73;0.73;;;19.70;81.00;;;;;;10456130;28;20580;-57
2021/08/18 23:45:03;;;;;;;0.70;0.70;;;19.70;81.00;;;;;;10473630;28;20200;-58
2021/08/18 23:50:25;;;;;;;0.97;0.97;;;19.70;81.00;;;;;;10515492;28;20302;-59
2021/08/18 23:55:49;;;;;;;0.70;0.70;;;19.70;81.00;;;;;;10506057;28;20247;-59
